createdAt,value
2024-05-09T00:01:44.698Z,0.70
2024-05-09T00:03:56.796Z,0.50
2024-05-09T00:06:10.591Z,0.40
2024-05-09T00:08:22.747Z,0.40
2024-05-09T00:10:37.591Z,0.50
2024-05-09T00:12:51.076Z,0.40
2024-05-09T00:15:03.480Z,0.50
2024-05-09T00:17:15.739Z,0.70
2024-05-09T00:19:28.368Z,0.50
2024-05-09T00:21:43.658Z,0.50
2024-05-09T00:23:56.704Z,0.50
2024-05-09T00:26:09.614Z,0.60
2024-05-09T00:28:21.832Z,0.60
2024-05-09T00:30:36.285Z,0.40
2024-05-09T00:32:49.959Z,0.50
2024-05-09T00:35:02.467Z,0.70
2024-05-09T00:37:15.618Z,0.60
2024-05-09T00:39:27.956Z,0.40
2024-05-09T00:41:40.319Z,0.70
2024-05-09T00:43:52.634Z,0.50
2024-05-09T00:46:05.501Z,0.60
2024-05-09T00:48:20.778Z,0.60
2024-05-09T00:50:36.607Z,0.70
2024-05-09T00:52:50.753Z,0.80
2024-05-09T00:55:03.777Z,0.70
2024-05-09T00:57:17.333Z,0.60
2024-05-09T00:59:30.794Z,0.50
2024-05-09T01:01:43.963Z,0.60
2024-05-09T01:03:56.552Z,0.50
2024-05-09T01:06:08.674Z,0.50
2024-05-09T01:08:21.689Z,0.70
2024-05-09T01:10:35.531Z,0.50
2024-05-09T01:12:48.941Z,0.70
2024-05-09T01:15:01.150Z,0.90
2024-05-09T01:17:13.647Z,0.70
2024-05-09T01:19:32.417Z,0.70
2024-05-09T01:21:47.637Z,0.50
2024-05-09T01:23:59.462Z,0.60
2024-05-09T01:26:12.050Z,0.60
2024-05-09T01:28:24.465Z,0.70
2024-05-09T01:30:38.498Z,0.30
2024-05-09T01:32:50.891Z,0.70
2024-05-09T01:35:04.098Z,0.50
2024-05-09T01:37:17.159Z,0.70
2024-05-09T01:39:29.007Z,0.50
2024-05-09T01:41:41.447Z,0.60
2024-05-09T01:43:54.263Z,0.40
2024-05-09T01:46:06.047Z,0.60
2024-05-09T01:48:18.166Z,0.50
2024-05-09T01:52:46.588Z,0.70
2024-05-09T01:55:01.999Z,0.50
2024-05-09T01:57:15.484Z,0.30
2024-05-09T01:59:28.585Z,0.50
2024-05-09T02:01:56.201Z,0.60
2024-05-09T02:04:10.440Z,0.60
2024-05-09T02:06:22.497Z,0.60
2024-05-09T02:08:35.227Z,0.90
2024-05-09T02:10:48.030Z,0.90
2024-05-09T02:13:00.637Z,0.60
2024-05-09T02:15:14.154Z,0.60
2024-05-09T02:17:27.304Z,0.60
2024-05-09T02:19:39.659Z,0.80
2024-05-09T02:21:51.678Z,0.50
2024-05-09T02:24:03.589Z,0.70
2024-05-09T02:26:15.807Z,0.60
2024-05-09T02:28:29.194Z,0.40
2024-05-09T02:30:42.582Z,0.60
2024-05-09T02:32:55.238Z,0.50
2024-05-09T02:35:07.862Z,0.90
2024-05-09T02:37:20.152Z,0.90
2024-05-09T02:39:33.047Z,0.50
2024-05-09T02:41:44.973Z,0.50
2024-05-09T02:43:56.893Z,0.50
2024-05-09T02:46:09.556Z,0.50
2024-05-09T02:48:22.157Z,0.70
2024-05-09T02:50:38.906Z,0.40
2024-05-09T02:52:52.591Z,0.70
2024-05-09T02:55:04.802Z,0.60
2024-05-09T02:57:17.152Z,0.60
2024-05-09T02:59:29.377Z,0.50
2024-05-09T03:01:42.473Z,0.70
2024-05-09T03:03:54.651Z,0.70
2024-05-09T03:06:07.333Z,0.90
2024-05-09T03:08:20.495Z,0.40
2024-05-09T03:10:36.426Z,0.70
2024-05-09T03:12:50.800Z,0.80
2024-05-09T03:15:02.881Z,0.60
2024-05-09T03:17:14.985Z,0.70
2024-05-09T03:19:27.281Z,0.80
2024-05-09T03:21:43.366Z,0.70
2024-05-09T03:23:55.618Z,0.60
2024-05-09T03:26:12.714Z,0.70
2024-05-09T03:28:24.683Z,0.70
2024-05-09T03:30:41.404Z,0.70
2024-05-09T03:32:56.647Z,0.70
2024-05-09T03:35:10.055Z,0.60
2024-05-09T03:37:22.109Z,0.90
2024-05-09T03:39:35.077Z,0.80
2024-05-09T03:41:47.518Z,0.80
2024-05-09T03:43:59.662Z,0.60
2024-05-09T03:46:11.827Z,0.70
2024-05-09T03:48:25.362Z,0.80
2024-05-09T03:50:38.092Z,0.70
2024-05-09T03:52:51.859Z,0.80
2024-05-09T03:55:04.312Z,0.70
2024-05-09T03:57:16.554Z,0.70
2024-05-09T03:59:28.827Z,0.80
2024-05-09T04:01:41.324Z,0.80
2024-05-09T04:03:54.215Z,0.50
2024-05-09T04:06:06.306Z,0.70
2024-05-09T04:08:18.965Z,0.70
2024-05-09T04:10:34.098Z,0.60
2024-05-09T04:12:48.161Z,0.60
2024-05-09T04:15:00.227Z,0.50
2024-05-09T04:17:12.820Z,0.90
2024-05-09T04:19:25.070Z,0.60
2024-05-09T04:21:37.412Z,0.60
2024-05-09T04:23:49.671Z,0.50
2024-05-09T04:26:05.201Z,0.60
2024-05-09T04:28:17.352Z,0.70
2024-05-09T04:30:37.279Z,0.80
2024-05-09T04:32:52.840Z,0.60
2024-05-09T04:35:05.932Z,0.70
2024-05-09T04:37:18.264Z,0.60
2024-05-09T04:39:30.469Z,0.60
2024-05-09T04:41:42.772Z,0.80
2024-05-09T04:43:54.611Z,0.50
2024-05-09T04:48:17.360Z,0.50
2024-05-09T04:50:35.732Z,0.70
2024-05-09T04:52:50.489Z,0.80
2024-05-09T04:55:03.364Z,0.70
2024-05-09T04:57:15.332Z,0.60
2024-05-09T04:59:27.524Z,0.60
2024-05-09T05:01:39.323Z,0.80
2024-05-09T05:06:02.101Z,0.60
2024-05-09T05:08:17.449Z,0.60
2024-05-09T05:10:35.771Z,0.80
2024-05-09T05:13:05.148Z,0.90
2024-05-09T05:15:18.854Z,0.80
2024-05-09T05:17:31.000Z,0.60
2024-05-09T05:19:43.087Z,0.70
2024-05-09T05:21:55.225Z,0.70
2024-05-09T05:24:07.796Z,0.80
2024-05-09T05:26:21.382Z,0.60
2024-05-09T05:28:33.210Z,0.70
2024-05-09T05:30:45.703Z,0.70
2024-05-09T05:32:57.994Z,0.90
2024-05-09T05:35:10.629Z,1.20
2024-05-09T05:37:23.628Z,0.50
2024-05-09T05:39:35.796Z,0.60
2024-05-09T05:41:47.733Z,1.20
2024-05-09T05:43:59.862Z,0.70
2024-05-09T05:46:12.193Z,0.70
2024-05-09T05:48:24.280Z,0.80
2024-05-09T05:50:38.366Z,0.90
2024-05-09T05:52:51.161Z,0.80
2024-05-09T05:55:03.038Z,0.60
2024-05-09T05:59:25.292Z,0.60
2024-05-09T06:01:37.139Z,0.70
2024-05-09T06:03:49.259Z,0.90
2024-05-09T06:06:04.966Z,1.00
2024-05-09T06:08:17.728Z,0.60
2024-05-09T06:10:37.444Z,0.90
2024-05-09T06:12:52.290Z,0.80
2024-05-09T06:15:04.267Z,0.70
2024-05-09T06:17:16.917Z,0.60
2024-05-09T06:19:29.432Z,0.80
2024-05-09T06:21:42.036Z,0.90
2024-05-09T06:23:55.496Z,0.80
2024-05-09T06:26:07.817Z,1.00
2024-05-09T06:28:20.019Z,0.70
2024-05-09T06:32:50.163Z,0.90
2024-05-09T06:35:01.954Z,1.00
2024-05-09T06:37:14.017Z,0.80
2024-05-09T06:39:26.162Z,0.80
2024-05-09T06:41:37.923Z,1.20
2024-05-09T06:43:49.581Z,0.80
2024-05-09T06:46:01.288Z,0.90
2024-05-09T06:48:14.445Z,0.80
2024-05-09T06:50:28.709Z,1.00
2024-05-09T06:52:49.278Z,1.20
2024-05-09T06:55:01.109Z,0.80
2024-05-09T06:57:12.920Z,1.20
2024-05-09T06:59:25.194Z,1.00
2024-05-09T07:01:37.083Z,1.20
2024-05-09T07:03:49.558Z,0.90
2024-05-09T07:06:01.797Z,0.80
2024-05-09T07:08:14.266Z,1.00
2024-05-09T07:10:32.857Z,0.90
2024-05-09T07:12:47.074Z,0.90
2024-05-09T07:17:09.096Z,0.90
2024-05-09T07:19:21.720Z,1.10
2024-05-09T07:21:33.820Z,1.00
2024-05-09T07:26:00.306Z,1.00
2024-05-09T07:28:16.182Z,1.10
2024-05-09T07:30:33.301Z,1.00
2024-05-09T07:32:46.989Z,1.20
2024-05-09T07:34:59.396Z,1.20
2024-05-09T07:37:13.644Z,0.90
2024-05-09T07:39:25.561Z,0.90
2024-05-09T07:41:38.060Z,1.10
2024-05-09T07:43:49.876Z,0.90
2024-05-09T07:46:51.832Z,2.10
2024-05-09T07:50:34.363Z,0.80
2024-05-09T07:53:39.428Z,0.90
2024-05-09T07:58:05.187Z,0.90
2024-05-09T08:00:23.789Z,1.10
2024-05-09T08:02:41.365Z,1.10
2024-05-09T08:07:03.437Z,0.90
2024-05-09T08:09:20.577Z,1.00
2024-05-09T08:11:34.701Z,1.10
2024-05-09T08:13:47.468Z,0.90
2024-05-09T08:15:59.750Z,1.10
2024-05-09T08:18:13.549Z,0.90
2024-05-09T08:20:31.107Z,1.00
2024-05-09T08:22:47.082Z,1.30
2024-05-09T08:27:08.953Z,0.90
2024-05-09T08:29:21.013Z,1.00
2024-05-09T08:31:34.168Z,1.00
2024-05-09T08:33:52.608Z,1.30
2024-05-09T08:36:04.675Z,0.90
2024-05-09T08:40:33.399Z,1.20
2024-05-09T08:42:55.697Z,1.10
2024-05-09T08:45:08.473Z,0.90
2024-05-09T08:47:21.094Z,1.00
2024-05-09T08:49:33.571Z,1.30
2024-05-09T08:51:45.601Z,1.10
2024-05-09T08:53:57.747Z,1.10
2024-05-09T08:58:22.183Z,0.90
2024-05-09T09:00:37.644Z,0.90
2024-05-09T09:02:50.452Z,1.00
2024-05-09T09:05:11.520Z,1.00
2024-05-09T09:07:25.096Z,0.90
2024-05-09T09:09:44.359Z,0.90
2024-05-09T09:11:56.655Z,1.10
2024-05-09T09:14:08.357Z,1.30
2024-05-09T09:16:21.444Z,1.10
2024-05-09T09:18:35.203Z,1.00
2024-05-09T09:20:48.045Z,1.00
2024-05-09T09:23:00.752Z,1.10
2024-05-09T09:25:13.401Z,1.50
2024-05-09T09:27:25.235Z,1.20
2024-05-09T09:29:37.441Z,1.40
2024-05-09T09:31:49.553Z,1.00
2024-05-09T09:36:15.074Z,1.60
2024-05-09T09:38:32.151Z,0.80
2024-05-09T09:40:49.883Z,1.20
2024-05-09T09:43:03.814Z,1.10
2024-05-09T09:45:16.883Z,1.00
2024-05-09T09:47:30.041Z,1.20
2024-05-09T09:49:42.395Z,1.10
2024-05-09T09:51:55.829Z,1.20
2024-05-09T09:54:10.336Z,1.70
2024-05-09T09:56:23.571Z,1.00
2024-05-09T09:58:39.034Z,1.10
2024-05-09T10:00:51.501Z,1.10
2024-05-09T10:03:04.001Z,1.60
2024-05-09T10:05:17.678Z,0.90
2024-05-09T10:07:30.931Z,1.10
2024-05-09T10:09:43.187Z,1.00
2024-05-09T10:12:00.228Z,1.00
2024-05-09T10:14:13.322Z,1.40
2024-05-09T10:16:33.271Z,1.20
2024-05-09T10:18:46.166Z,1.20
2024-05-09T10:20:58.204Z,0.90
2024-05-09T10:23:24.479Z,1.20
2024-05-09T10:25:36.259Z,0.90
2024-05-09T10:27:57.254Z,1.20
2024-05-09T10:30:17.644Z,1.20
2024-05-09T10:32:40.953Z,1.20
2024-05-09T10:35:08.234Z,1.00
2024-05-09T10:37:20.391Z,1.30
2024-05-09T10:41:43.115Z,1.00
2024-05-09T10:43:55.554Z,1.10
2024-05-09T10:49:08.114Z,0.90
2024-05-09T10:51:22.281Z,1.50
2024-05-09T10:53:42.753Z,1.30
2024-05-09T10:56:03.700Z,1.30
2024-05-09T10:58:35.598Z,1.30
2024-05-09T11:00:47.948Z,1.00
2024-05-09T11:03:01.366Z,0.90
2024-05-09T11:05:14.230Z,1.20
2024-05-09T11:09:56.002Z,0.90
2024-05-09T11:12:08.813Z,1.00
2024-05-09T11:14:21.160Z,1.50
2024-05-09T11:16:33.456Z,0.90
2024-05-09T11:18:45.884Z,0.90
2024-05-09T11:20:59.139Z,1.00
2024-05-09T11:23:12.807Z,1.20
2024-05-09T11:25:25.788Z,1.20
2024-05-09T11:27:38.701Z,0.90
2024-05-09T11:29:50.854Z,1.10
2024-05-09T11:32:03.079Z,1.30
2024-05-09T11:34:15.482Z,1.10
2024-05-09T11:36:27.973Z,1.50
2024-05-09T11:38:40.709Z,1.60
2024-05-09T11:40:52.818Z,1.80
2024-05-09T11:43:09.248Z,1.50
2024-05-09T11:45:23.607Z,1.90
2024-05-09T11:47:46.921Z,2.10
2024-05-09T11:50:00.244Z,2.10
2024-05-09T11:52:13.007Z,2.30
2024-05-09T11:54:25.938Z,2.30
2024-05-09T11:56:38.076Z,2.30
2024-05-09T11:58:53.812Z,1.50
2024-05-09T12:01:06.501Z,1.60
2024-05-09T12:03:18.777Z,2.00
2024-05-09T12:05:31.595Z,1.40
2024-05-09T12:07:44.619Z,1.20
2024-05-09T12:09:56.758Z,1.60
2024-05-09T12:12:09.449Z,1.20
2024-05-09T12:14:21.448Z,1.40
2024-05-09T12:16:33.758Z,1.40
2024-05-09T12:18:45.998Z,1.30
2024-05-09T12:20:58.133Z,2.00
2024-05-09T12:23:14.051Z,1.20
2024-05-09T12:25:29.203Z,1.60
2024-05-09T12:28:01.575Z,1.90
2024-05-09T12:30:32.810Z,1.00
2024-05-09T12:32:51.303Z,1.50
2024-05-09T12:35:06.817Z,1.30
2024-05-09T12:37:28.107Z,1.80
2024-05-09T12:39:50.629Z,1.20
2024-05-09T12:42:06.564Z,1.30
2024-05-09T12:44:38.976Z,1.20
2024-05-09T12:46:51.050Z,1.50
2024-05-09T12:49:23.201Z,1.30
2024-05-09T12:51:35.985Z,1.60
2024-05-09T12:53:51.833Z,1.10
2024-05-09T12:56:05.452Z,2.00
2024-05-09T12:58:19.468Z,1.40
2024-05-09T13:00:52.453Z,1.10
2024-05-09T13:03:05.091Z,1.50
2024-05-09T13:05:21.061Z,1.10
2024-05-09T13:07:36.462Z,1.30
2024-05-09T13:12:01.442Z,1.20
2024-05-09T13:14:13.943Z,1.80
2024-05-09T13:16:26.709Z,1.30
2024-05-09T13:18:39.296Z,1.30
2024-05-09T13:20:55.566Z,1.60
2024-05-09T13:23:08.926Z,1.10
2024-05-09T13:25:21.327Z,1.30
2024-05-09T13:27:33.977Z,1.30
2024-05-09T13:29:46.579Z,1.60
2024-05-09T13:32:01.985Z,1.20
2024-05-09T13:34:14.206Z,1.40
2024-05-09T13:36:26.415Z,1.30
2024-05-09T13:38:41.059Z,1.30
2024-05-09T13:40:54.244Z,1.50
2024-05-09T13:43:16.757Z,1.70
2024-05-09T13:45:28.969Z,1.40
2024-05-09T13:47:45.031Z,1.40
2024-05-09T13:50:11.496Z,1.50
2024-05-09T13:52:27.367Z,1.70
2024-05-09T13:54:39.493Z,1.50
2024-05-09T13:56:53.059Z,1.40
2024-05-09T13:59:13.798Z,1.20
2024-05-09T14:01:35.709Z,1.50
2024-05-09T14:03:57.129Z,1.40
2024-05-09T14:06:13.371Z,1.30
2024-05-09T14:08:26.921Z,1.30
2024-05-09T14:10:44.671Z,1.10
2024-05-09T14:12:57.291Z,1.10
2024-05-09T14:15:14.300Z,1.30
2024-05-09T14:17:46.970Z,1.20
2024-05-09T14:20:16.702Z,1.30
2024-05-09T14:22:38.974Z,1.90
2024-05-09T14:24:55.665Z,1.60
2024-05-09T14:27:09.260Z,1.20
2024-05-09T14:29:22.395Z,1.00
2024-05-09T14:31:36.991Z,1.40
2024-05-09T14:33:51.140Z,1.70
2024-05-09T14:36:04.077Z,1.30
2024-05-09T14:38:26.379Z,1.50
2024-05-09T14:40:43.203Z,0.90
2024-05-09T14:42:57.438Z,1.00
2024-05-09T14:45:20.237Z,1.10
2024-05-09T14:47:32.530Z,0.80
2024-05-09T14:49:45.418Z,0.90
2024-05-09T14:51:57.804Z,0.90
2024-05-09T14:54:12.666Z,1.00
2024-05-09T14:56:41.201Z,0.80
2024-05-09T14:58:58.098Z,0.90
2024-05-09T15:01:11.030Z,0.90
2024-05-09T15:03:24.053Z,0.80
2024-05-09T15:05:40.062Z,0.80
2024-05-09T15:07:52.470Z,0.90
2024-05-09T15:10:05.738Z,0.80
2024-05-09T15:12:23.179Z,1.20
2024-05-09T15:14:36.527Z,0.90
2024-05-09T15:16:49.543Z,1.00
2024-05-09T15:19:02.158Z,1.20
2024-05-09T15:21:14.674Z,1.10
2024-05-09T15:23:27.278Z,1.00
2024-05-09T15:25:42.891Z,1.00
2024-05-09T15:27:58.792Z,1.30
2024-05-09T15:30:20.695Z,1.00
2024-05-09T15:32:37.028Z,1.30
2024-05-09T15:34:49.726Z,0.90
2024-05-09T15:37:04.711Z,0.80
2024-05-09T15:39:16.997Z,0.70
2024-05-09T15:41:28.989Z,1.00
2024-05-09T15:43:41.121Z,1.10
2024-05-09T15:45:54.123Z,1.30
2024-05-09T15:48:07.473Z,0.70
2024-05-09T15:50:28.817Z,0.70
2024-05-09T15:52:57.958Z,0.60
2024-05-09T15:55:12.099Z,0.90
2024-05-09T15:57:24.724Z,0.60
2024-05-09T15:59:36.924Z,1.00
2024-05-09T16:01:52.299Z,1.20
2024-05-09T16:04:05.561Z,1.30
2024-05-09T16:06:18.334Z,1.00
2024-05-09T16:08:30.708Z,0.90
2024-05-09T16:10:44.676Z,0.90
2024-05-09T16:12:58.067Z,0.90
2024-05-09T16:15:11.128Z,1.20
2024-05-09T16:17:23.992Z,0.90
2024-05-09T16:19:36.558Z,0.80
2024-05-09T16:21:48.980Z,0.80
2024-05-09T16:24:01.967Z,1.00
2024-05-09T16:26:14.602Z,0.90
2024-05-09T16:28:27.870Z,0.80
2024-05-09T16:30:43.637Z,0.80
2024-05-09T16:32:59.079Z,0.80
2024-05-09T16:35:13.036Z,0.80
2024-05-09T16:37:27.517Z,0.90
2024-05-09T16:39:41.016Z,0.70
2024-05-09T16:41:53.359Z,0.60
2024-05-09T16:44:05.645Z,1.20
2024-05-09T16:46:19.224Z,0.70
2024-05-09T16:48:34.797Z,0.60
2024-05-09T16:50:47.899Z,0.50
2024-05-09T16:53:10.171Z,0.80
2024-05-09T16:55:42.333Z,0.80
2024-05-09T16:57:55.207Z,0.70
2024-05-09T17:00:31.354Z,1.10
2024-05-09T17:02:55.928Z,0.70
2024-05-09T17:05:12.215Z,0.80
2024-05-09T17:07:26.263Z,0.80
2024-05-09T17:09:38.720Z,0.70
2024-05-09T17:12:02.277Z,0.70
2024-05-09T17:14:14.322Z,0.90
2024-05-09T17:16:37.206Z,0.70
2024-05-09T17:19:00.786Z,0.80
2024-05-09T17:21:13.643Z,0.90
2024-05-09T17:23:31.811Z,0.80
2024-05-09T17:25:50.208Z,1.00
2024-05-09T17:28:08.320Z,0.60
2024-05-09T17:30:28.859Z,1.00
2024-05-09T17:32:47.267Z,0.80
2024-05-09T17:34:59.967Z,0.70
2024-05-09T17:37:12.268Z,0.70
2024-05-09T17:39:28.804Z,0.70
2024-05-09T17:41:45.778Z,0.80
2024-05-09T17:43:58.084Z,0.70
2024-05-09T17:46:10.483Z,0.70
2024-05-09T17:48:23.336Z,1.00
2024-05-09T17:50:39.224Z,0.90
2024-05-09T17:52:53.846Z,0.70
2024-05-09T17:55:06.443Z,0.60
2024-05-09T17:57:18.871Z,0.70
2024-05-09T17:59:30.965Z,0.90
2024-05-09T18:01:46.631Z,0.60
2024-05-09T18:03:58.937Z,0.90
2024-05-09T18:06:12.910Z,0.70
2024-05-09T18:08:24.863Z,0.80
2024-05-09T18:10:40.017Z,0.70
2024-05-09T18:12:52.914Z,0.60
2024-05-09T18:15:25.259Z,0.60
2024-05-09T18:17:49.145Z,0.70
2024-05-09T18:20:19.647Z,0.60
2024-05-09T18:22:40.277Z,0.80
2024-05-09T18:24:53.000Z,0.70
2024-05-09T18:27:18.048Z,0.70
2024-05-09T18:29:30.330Z,0.80
2024-05-09T18:34:22.621Z,0.60
2024-05-09T18:36:35.893Z,0.70
2024-05-09T18:38:57.549Z,0.50
2024-05-09T18:41:10.685Z,0.60
2024-05-09T18:43:34.856Z,0.90
2024-05-09T18:46:01.937Z,0.80
2024-05-09T18:48:17.020Z,0.60
2024-05-09T18:50:40.495Z,0.50
2024-05-09T18:52:53.950Z,0.50
2024-05-09T18:55:26.131Z,0.90
2024-05-09T18:57:41.302Z,0.60
2024-05-09T18:59:53.858Z,0.60
2024-05-09T19:02:26.424Z,0.60
2024-05-09T19:04:51.901Z,0.70
2024-05-09T19:07:05.343Z,0.60
2024-05-09T19:09:20.596Z,0.30
2024-05-09T19:11:53.337Z,0.40
2024-05-09T19:14:08.176Z,0.30
2024-05-09T19:16:23.593Z,0.30
2024-05-09T19:18:35.872Z,0.40
2024-05-09T19:20:48.313Z,0.50
2024-05-09T19:23:00.508Z,0.40
2024-05-09T19:25:13.931Z,0.40
2024-05-09T19:27:26.601Z,0.40
2024-05-09T19:29:48.488Z,0.20
2024-05-09T19:32:04.082Z,0.40
2024-05-09T19:34:16.557Z,0.30
2024-05-09T19:36:48.989Z,0.40
2024-05-09T19:39:04.718Z,0.40
2024-05-09T19:41:17.141Z,0.40
2024-05-09T19:43:33.810Z,0.40
2024-05-09T19:45:48.055Z,0.30
2024-05-09T19:48:00.939Z,0.40
2024-05-09T19:50:19.575Z,0.20
2024-05-09T19:52:35.248Z,0.50
2024-05-09T19:54:50.543Z,0.30
2024-05-09T19:57:02.999Z,0.40
2024-05-09T19:59:15.210Z,0.60
2024-05-09T20:01:32.043Z,0.40
2024-05-09T20:03:44.940Z,0.40
2024-05-09T20:06:06.566Z,0.40
2024-05-09T20:08:21.708Z,0.30
2024-05-09T20:10:37.046Z,0.50
2024-05-09T20:12:49.728Z,0.30
2024-05-09T20:15:06.278Z,0.20
2024-05-09T20:17:19.026Z,0.50
2024-05-09T20:19:34.730Z,0.20
2024-05-09T20:21:57.059Z,0.40
2024-05-09T20:24:10.560Z,0.30
2024-05-09T20:26:22.831Z,0.20
2024-05-09T20:28:35.448Z,0.30
2024-05-09T20:30:59.443Z,0.20
2024-05-09T20:33:15.016Z,0.30
2024-05-09T20:35:28.135Z,0.20
2024-05-09T20:37:40.188Z,0.20
2024-05-09T20:39:52.592Z,0.30
2024-05-09T20:42:05.273Z,0.30
2024-05-09T20:44:17.396Z,0.40
2024-05-09T20:46:30.429Z,0.40
2024-05-09T20:48:43.581Z,0.30
2024-05-09T20:50:59.259Z,0.50
2024-05-09T20:53:21.556Z,0.30
2024-05-09T20:55:34.466Z,0.30
2024-05-09T20:57:47.094Z,0.30
2024-05-09T20:59:59.475Z,0.40
2024-05-09T21:02:21.603Z,0.30
2024-05-09T21:04:34.135Z,0.30
2024-05-09T21:06:46.949Z,0.30
2024-05-09T21:08:59.819Z,0.30
2024-05-09T21:11:12.944Z,0.30
2024-05-09T21:13:25.276Z,0.40
2024-05-09T21:15:41.009Z,0.20
2024-05-09T21:18:05.539Z,0.50
2024-05-09T21:20:28.254Z,0.40
2024-05-09T21:22:43.041Z,0.30
2024-05-09T21:24:55.609Z,0.30
2024-05-09T21:27:08.386Z,0.30
2024-05-09T21:29:20.842Z,0.30
2024-05-09T21:31:43.093Z,0.40
2024-05-09T21:33:55.551Z,0.30
2024-05-09T21:36:11.865Z,0.30
2024-05-09T21:38:24.216Z,0.50
2024-05-09T21:40:37.599Z,0.30
2024-05-09T21:42:59.548Z,0.30
2024-05-09T21:45:12.812Z,0.50
2024-05-09T21:47:25.386Z,0.30
2024-05-09T21:49:38.813Z,0.40
2024-05-09T21:51:52.058Z,0.20
2024-05-09T21:54:04.638Z,0.40
2024-05-09T21:56:26.424Z,0.30
2024-05-09T21:58:39.793Z,0.20
2024-05-09T22:01:01.128Z,0.20
2024-05-09T22:03:14.673Z,0.30
2024-05-09T22:05:27.484Z,0.50
2024-05-09T22:07:43.311Z,0.70
2024-05-09T22:09:55.580Z,0.10
2024-05-09T22:12:08.190Z,0.40
2024-05-09T22:14:20.916Z,0.30
2024-05-09T22:16:33.395Z,0.30
2024-05-09T22:19:05.693Z,0.40
2024-05-09T22:21:18.442Z,0.30
2024-05-09T22:23:33.665Z,0.50
2024-05-09T22:25:46.194Z,0.30
2024-05-09T22:27:58.646Z,0.20
2024-05-09T22:30:20.897Z,0.30
2024-05-09T22:32:35.984Z,0.30
2024-05-09T22:34:48.701Z,0.30
2024-05-09T22:37:01.498Z,0.40
2024-05-09T22:39:13.876Z,0.20
2024-05-09T22:41:26.171Z,0.30
2024-05-09T22:43:38.893Z,0.50
2024-05-09T22:46:01.427Z,0.40
2024-05-09T22:48:24.752Z,0.40
2024-05-09T22:50:37.463Z,0.20
2024-05-09T22:52:50.015Z,0.30
2024-05-09T22:55:02.269Z,0.30
2024-05-09T22:57:26.107Z,0.30
2024-05-09T22:59:38.437Z,0.40
2024-05-09T23:01:50.908Z,0.30
2024-05-09T23:04:03.613Z,0.30
2024-05-09T23:06:16.355Z,0.30
2024-05-09T23:08:28.600Z,0.40
2024-05-09T23:10:40.780Z,0.30
2024-05-09T23:12:54.394Z,0.20
2024-05-09T23:15:07.087Z,0.30
2024-05-09T23:17:19.541Z,0.30
2024-05-09T23:19:31.917Z,0.20
2024-05-09T23:21:46.043Z,0.20
2024-05-09T23:23:59.020Z,0.30
2024-05-09T23:26:14.290Z,0.50
2024-05-09T23:28:26.639Z,0.30
2024-05-09T23:30:40.911Z,0.60
2024-05-09T23:32:54.244Z,0.30
2024-05-09T23:35:06.824Z,0.20
2024-05-09T23:37:20.436Z,0.40
2024-05-09T23:39:32.820Z,0.40
2024-05-09T23:41:44.727Z,0.30
2024-05-09T23:43:56.779Z,0.30
2024-05-09T23:46:09.238Z,0.30
2024-05-09T23:48:21.685Z,0.30
2024-05-09T23:50:37.161Z,0.40
2024-05-09T23:53:00.027Z,0.60
2024-05-09T23:55:13.443Z,0.40
2024-05-09T23:57:25.747Z,0.30
2024-05-09T23:59:38.154Z,0.30
